Time;durP1;ratioP1;P1;durP2;ratioP2;P2;SDS_P1;SDS_P2;PMS_P1;PMS_P2;Temp;Humidity;BMP_temperature;BMP_pressure;BME280_temperature;BME280_humidity;BME280_pressure;Samples;Min_cycle;Max_cycle;Signal;HPM_P1;HPM_P2
2023/01/23 00:00:26;;;;;;;12.32;9.00;;;15.60;59.60;;;;;;5064377;28;20106;-38
2023/01/23 00:02:51;;;;;;;10.38;8.18;;;15.60;59.70;;;;;;5042026;28;20033;-22
2023/01/23 00:05:17;;;;;;;12.10;8.40;;;15.60;59.60;;;;;;5045210;28;20027;-46
2023/01/23 00:07:43;;;;;;;10.38;8.30;;;15.70;59.50;;;;;;5043165;28;20045;-26
2023/01/23 00:10:09;;;;;;;10.57;8.15;;;15.60;59.70;;;;;;5054287;28;20056;-23
2023/01/23 00:12:35;;;;;;;9.82;7.82;;;15.70;59.50;;;;;;5058022;28;20075;-38
2023/01/23 00:15:00;;;;;;;9.93;7.22;;;15.70;59.50;;;;;;5066959;28;20057;-32
2023/01/23 00:17:26;;;;;;;8.23;7.20;;;15.70;59.30;;;;;;5047513;28;20087;-29
2023/01/23 00:19:53;;;;;;;8.43;7.32;;;15.70;59.90;;;;;;5051786;28;20033;-20
2023/01/23 00:22:19;;;;;;;8.80;7.53;;;15.70;59.30;;;;;;5045671;28;20492;-27
2023/01/23 00:24:44;;;;;;;9.55;7.80;;;15.70;59.40;;;;;;5059935;28;20025;-35
2023/01/23 00:27:10;;;;;;;8.73;7.18;;;15.70;59.40;;;;;;5048864;28;20033;-37
2023/01/23 00:29:35;;;;;;;7.95;7.13;;;15.70;59.40;;;;;;5050387;28;20510;-27
2023/01/23 00:32:01;;;;;;;7.63;6.72;;;15.70;59.50;;;;;;5056275;28;20086;-17
2023/01/23 00:34:27;;;;;;;8.18;6.80;;;15.70;59.40;;;;;;5048341;28;20067;-27
2023/01/23 00:36:52;;;;;;;7.90;6.75;;;15.70;59.40;;;;;;5050790;28;20029;-21
2023/01/23 00:39:19;;;;;;;7.38;6.40;;;15.70;59.30;;;;;;5052822;28;20051;-29
2023/01/23 00:41:45;;;;;;;10.43;7.18;;;15.70;59.40;;;;;;5047101;28;20049;-31
2023/01/23 00:44:11;;;;;;;8.68;6.88;;;15.70;59.20;;;;;;5047033;28;20481;-19
2023/01/23 00:46:36;;;;;;;8.32;6.70;;;15.70;59.20;;;;;;5057602;28;20040;-13
2023/01/23 00:49:02;;;;;;;8.32;6.63;;;15.70;59.30;;;;;;5062685;28;20045;-30
2023/01/23 00:51:28;;;;;;;7.03;6.30;;;15.70;59.40;;;;;;5047096;28;20029;-30
2023/01/23 00:53:53;;;;;;;7.38;6.68;;;15.70;59.40;;;;;;5046253;28;20798;-32
2023/01/23 00:56:19;;;;;;;8.10;6.20;;;15.80;59.40;;;;;;5060007;28;20408;-33
2023/01/23 00:58:45;;;;;;;6.57;5.85;;;15.70;59.20;;;;;;5043968;28;20053;-39
2023/01/23 01:01:10;;;;;;;6.95;6.32;;;15.80;59.10;;;;;;5043856;28;20037;-33
2023/01/23 01:03:36;;;;;;;6.95;6.25;;;15.80;59.00;;;;;;5050162;28;20052;-32
2023/01/23 01:06:02;;;;;;;8.43;6.38;;;15.70;59.10;;;;;;5050589;28;20579;-12
2023/01/23 01:08:27;;;;;;;6.80;6.10;;;15.70;59.10;;;;;;5055679;28;20044;-23
2023/01/23 01:10:53;;;;;;;6.28;5.50;;;15.70;59.20;;;;;;5052731;28;20049;-26
2023/01/23 01:13:20;;;;;;;6.05;5.45;;;15.70;59.10;;;;;;5049853;28;20097;-22
2023/01/23 01:15:49;;;;;;;8.50;6.00;;;15.80;59.20;;;;;;5060315;28;20056;-24
2023/01/23 01:18:15;;;;;;;6.80;6.10;;;15.70;59.10;;;;;;5050756;28;20503;-20
2023/01/23 01:20:41;;;;;;;6.50;5.90;;;15.70;59.10;;;;;;5059254;28;20094;-12
2023/01/23 01:23:07;;;;;;;6.78;6.18;;;15.70;59.20;;;;;;5050655;28;20447;-15
2023/01/23 01:25:32;;;;;;;6.18;5.57;;;15.70;59.30;;;;;;5044754;28;20041;-24
2023/01/23 01:27:58;;;;;;;6.88;5.47;;;15.70;59.20;;;;;;5046667;28;20079;-28
2023/01/23 01:30:28;;;;;;;6.03;5.43;;;15.70;59.30;;;;;;5043175;28;20415;-11
2023/01/23 01:32:53;;;;;;;5.93;5.18;;;15.60;59.70;;;;;;5053153;28;20067;-31
2023/01/23 01:35:19;;;;;;;7.00;5.32;;;15.60;59.40;;;;;;5061271;28;20715;-24
2023/01/23 01:37:45;;;;;;;5.95;5.35;;;15.70;59.20;;;;;;5047578;28;20522;-11
2023/01/23 01:40:22;;;;;;;5.50;5.00;;;15.60;59.40;;;;;;5045630;28;20044;-21
2023/01/23 01:42:51;;;;;;;5.93;5.38;;;15.70;59.20;;;;;;5055665;28;20048;-40
2023/01/23 01:45:54;;;;;;;7.25;5.63;;;15.60;59.20;;;;;;5054430;28;20048;-17
2023/01/23 01:48:20;;;;;;;4.85;4.40;;;15.60;59.10;;;;;;5057721;28;20083;-15
2023/01/23 01:50:46;;;;;;;5.68;5.18;;;15.60;59.30;;;;;;5059183;28;20081;-21
2023/01/23 01:53:11;;;;;;;5.80;4.88;;;15.60;59.30;;;;;;5063468;28;20044;-10
2023/01/23 01:55:37;;;;;;;5.28;4.88;;;15.70;59.30;;;;;;5061931;28;20135;-10
2023/01/23 01:58:02;;;;;;;5.05;4.57;;;15.60;59.20;;;;;;5057904;28;20040;-10
2023/01/23 02:00:28;;;;;;;5.18;4.68;;;15.70;59.60;;;;;;5060027;28;20113;-10
2023/01/23 02:03:00;;;;;;;4.90;4.40;;;15.60;59.30;;;;;;5053337;28;20102;-9
2023/01/23 02:05:28;;;;;;;5.20;4.80;;;15.70;59.10;;;;;;5063393;28;20518;-9
2023/01/23 02:08:14;;;;;;;4.78;4.38;;;15.70;59.30;;;;;;5045672;28;20096;-10
2023/01/23 02:10:41;;;;;;;5.00;4.60;;;15.70;58.90;;;;;;5049119;28;20501;-9
2023/01/23 02:13:29;;;;;;;5.07;4.78;;;15.70;59.20;;;;;;5045294;28;20041;-10
2023/01/23 02:15:55;;;;;;;4.75;4.35;;;15.70;59.20;;;;;;5065283;28;20045;-9
2023/01/23 02:18:20;;;;;;;4.10;3.80;;;15.70;59.10;;;;;;5047258;28;20043;-13
2023/01/23 02:20:46;;;;;;;4.45;4.15;;;15.70;59.10;;;;;;5046023;28;20411;-20
2023/01/23 02:23:36;;;;;;;4.40;4.10;;;15.60;59.00;;;;;;5053578;28;20404;-17
2023/01/23 02:26:06;;;;;;;4.28;3.97;;;15.70;59.00;;;;;;5040504;28;20067;-20
2023/01/23 02:28:48;;;;;;;4.72;4.35;;;15.60;59.10;;;;;;5059021;28;20040;-21
2023/01/23 02:31:14;;;;;;;4.30;4.00;;;15.60;59.20;;;;;;5043301;28;20069;-24
2023/01/23 02:33:41;;;;;;;4.10;3.80;;;15.70;59.10;;;;;;5046770;28;20451;-10
2023/01/23 02:36:08;;;;;;;4.57;4.18;;;15.60;59.30;;;;;;5062488;28;21342;-10
2023/01/23 02:38:39;;;;;;;4.43;4.03;;;15.60;59.20;;;;;;5063348;28;20052;-9
2023/01/23 02:41:06;;;;;;;4.68;4.28;;;15.60;59.20;;;;;;5051031;28;20041;-11
2023/01/23 02:43:34;;;;;;;4.20;3.90;;;15.50;59.10;;;;;;5050680;28;20041;-13
2023/01/23 02:46:08;;;;;;;4.43;4.13;;;15.60;59.40;;;;;;5060624;28;20099;-8
2023/01/23 02:48:34;;;;;;;;;;;15.60;59.10;;;;;;5040245;28;20446;-9
2023/01/23 02:50:59;;;;;;;3.90;3.60;;;15.50;59.20;;;;;;5035891;28;19921;-9
2023/01/23 02:53:26;;;;;;;4.30;4.00;;;15.60;59.30;;;;;;5045041;28;20045;-9
2023/01/23 02:55:52;;;;;;;4.68;4.30;;;15.70;59.20;;;;;;5045438;28;20503;-8
2023/01/23 03:01:02;;;;;;;3.97;3.65;;;15.60;59.50;;;;;;5043839;28;20052;-8
2023/01/23 03:03:29;;;;;;;4.38;4.07;;;15.50;59.20;;;;;;5057550;28;20068;-8
2023/01/23 03:05:55;;;;;;;4.65;4.30;;;15.60;59.10;;;;;;5045834;28;20043;-12
2023/01/23 03:08:20;;;;;;;4.70;4.40;;;15.50;59.20;;;;;;5044656;28;20045;-15
2023/01/23 03:10:46;;;;;;;4.75;4.45;;;15.60;59.30;;;;;;5050052;28;20045;-9
2023/01/23 03:13:12;;;;;;;4.53;4.22;;;15.60;59.00;;;;;;5044575;28;20488;-8
2023/01/23 03:15:38;;;;;;;4.90;4.57;;;15.60;59.10;;;;;;5051884;28;20045;-12
2023/01/23 03:18:04;;;;;;;4.20;3.90;;;15.50;59.10;;;;;;5050415;28;20068;-9
2023/01/23 03:20:36;;;;;;;4.43;4.13;;;15.50;59.30;;;;;;5047080;28;20043;-12
2023/01/23 03:23:02;;;;;;;4.88;4.55;;;15.50;59.50;;;;;;5049168;28;20490;-14
2023/01/23 03:25:27;;;;;;;4.18;3.88;;;15.50;59.10;;;;;;5043554;28;20094;-9
2023/01/23 03:27:53;;;;;;;3.72;3.50;;;15.50;59.20;;;;;;5045235;28;20037;-15
2023/01/23 03:30:20;;;;;;;4.57;4.30;;;15.50;59.30;;;;;;5044407;28;20575;-16
2023/01/23 03:32:46;;;;;;;3.95;3.75;;;15.50;59.30;;;;;;5053271;28;20048;-14
2023/01/23 03:35:13;;;;;;;4.45;4.05;;;15.40;59.40;;;;;;5066415;28;20044;-28
2023/01/23 03:37:39;;;;;;;4.55;4.25;;;15.40;59.30;;;;;;5056233;28;20033;-15
2023/01/23 03:42:49;;;;;;;3.60;3.40;;;15.50;59.90;;;;;;5044897;28;20087;-13
2023/01/23 03:45:15;;;;;;;4.13;3.83;;;15.40;59.20;;;;;;5064129;28;20036;-8
2023/01/23 03:47:40;;;;;;;4.25;3.95;;;15.40;59.10;;;;;;5055604;28;20079;-11
2023/01/23 03:50:06;;;;;;;4.00;3.78;;;15.50;59.30;;;;;;5067894;28;20482;-16
2023/01/23 03:52:32;;;;;;;3.92;3.72;;;15.40;59.10;;;;;;5048604;28;20068;-9
2023/01/23 03:54:58;;;;;;;4.20;3.90;;;15.50;59.50;;;;;;5047664;28;20373;-19
2023/01/23 03:57:23;;;;;;;4.15;3.85;;;15.50;59.10;;;;;;5047776;28;20033;-10
2023/01/23 03:59:49;;;;;;;4.60;4.30;;;15.50;59.10;;;;;;5046224;28;20029;-16
2023/01/23 04:02:15;;;;;;;4.43;4.13;;;15.50;59.20;;;;;;5063208;28;20041;-11
2023/01/23 04:04:40;;;;;;;3.88;3.58;;;15.50;59.50;;;;;;5052536;28;21249;-9
2023/01/23 04:07:07;;;;;;;4.55;4.25;;;15.50;59.30;;;;;;5044304;28;20045;-18
2023/01/23 04:09:32;;;;;;;3.65;3.45;;;15.50;59.30;;;;;;5050568;28;20095;-9
2023/01/23 04:11:58;;;;;;;4.10;3.80;;;15.50;59.00;;;;;;5054854;28;20499;-13
2023/01/23 04:14:24;;;;;;;3.83;3.60;;;15.50;58.90;;;;;;5043326;28;20411;-9
2023/01/23 04:16:50;;;;;;;3.80;3.58;;;15.40;59.10;;;;;;5044234;28;20041;-8
2023/01/23 04:19:18;;;;;;;3.40;3.20;;;15.40;59.00;;;;;;5045008;28;20041;-14
2023/01/23 04:21:47;;;;;;;3.40;3.20;;;15.40;59.30;;;;;;5043784;28;20433;-20
2023/01/23 04:24:14;;;;;;;3.50;3.30;;;15.40;59.10;;;;;;5043585;28;20419;-9
2023/01/23 04:26:39;;;;;;;3.50;3.30;;;15.40;59.10;;;;;;5046119;28;20044;-25
2023/01/23 04:29:05;;;;;;;3.30;3.10;;;15.40;59.00;;;;;;5050732;28;20056;-9
2023/01/23 04:31:31;;;;;;;3.40;3.20;;;15.30;59.10;;;;;;5054512;28;20476;-12
2023/01/23 04:33:56;;;;;;;3.20;3.00;;;15.30;59.30;;;;;;5053095;28;20447;-13
2023/01/23 04:36:22;;;;;;;3.03;2.83;;;15.50;59.10;;;;;;5054994;28;20123;-14
2023/01/23 04:38:47;;;;;;;3.00;2.80;;;15.40;59.00;;;;;;5054921;28;20041;-24
2023/01/23 04:41:24;;;;;;;3.08;2.88;;;15.40;59.20;;;;;;5045655;28;20518;-24
2023/01/23 04:43:49;;;;;;;3.05;2.85;;;15.40;58.90;;;;;;5064395;28;20426;-9
2023/01/23 04:46:15;;;;;;;3.20;3.00;;;15.40;59.10;;;;;;5046333;28;20033;-10
2023/01/23 04:48:40;;;;;;;3.10;2.90;;;15.30;59.10;;;;;;5052540;28;20384;-11
2023/01/23 04:51:06;;;;;;;3.10;2.90;;;15.40;59.20;;;;;;5045935;28;20029;-15
2023/01/23 04:53:32;;;;;;;3.00;2.80;;;15.30;58.90;;;;;;5045280;28;20029;-11
2023/01/23 04:55:57;;;;;;;2.95;2.75;;;15.30;59.00;;;;;;5061012;28;20129;-12
2023/01/23 04:58:23;;;;;;;2.85;2.65;;;15.40;59.20;;;;;;5046544;28;20116;-28
2023/01/23 05:00:48;;;;;;;3.00;2.80;;;15.30;58.90;;;;;;5048373;28;20492;-10
2023/01/23 05:03:14;;;;;;;2.67;2.58;;;15.40;58.80;;;;;;5060532;28;20128;-9
2023/01/23 05:05:41;;;;;;;2.95;2.75;;;15.40;59.00;;;;;;5047350;28;20040;-9
2023/01/23 05:08:07;;;;;;;2.85;2.65;;;15.40;58.80;;;;;;5064750;28;20078;-8
2023/01/23 05:10:32;;;;;;;3.22;3.03;;;15.30;58.80;;;;;;5053310;28;20045;-8
2023/01/23 05:12:58;;;;;;;2.67;2.58;;;15.30;59.10;;;;;;5066606;28;20028;-9
2023/01/23 05:15:24;;;;;;;2.92;2.72;;;15.30;59.10;;;;;;5066856;28;20033;-8
2023/01/23 05:17:49;;;;;;;2.88;2.67;;;15.30;59.20;;;;;;5046243;28;20366;-10
2023/01/23 05:20:15;;;;;;;3.15;2.95;;;15.30;59.10;;;;;;5054093;28;20487;-20
2023/01/23 05:22:51;;;;;;;2.58;2.38;;;15.40;59.10;;;;;;5065421;28;20037;-14
2023/01/23 05:25:24;;;;;;;2.70;2.60;;;15.30;59.00;;;;;;5059183;28;20411;-9
2023/01/23 05:27:50;;;;;;;2.35;2.25;;;15.20;59.00;;;;;;5052654;28;20036;-14
2023/01/23 05:30:16;;;;;;;2.75;2.55;;;15.30;59.00;;;;;;5057139;28;20108;-11
2023/01/23 05:32:42;;;;;;;2.50;2.40;;;15.20;58.90;;;;;;5066188;28;20048;-19
2023/01/23 05:35:08;;;;;;;3.00;2.80;;;15.20;58.90;;;;;;5079251;28;20045;-16
2023/01/23 05:37:33;;;;;;;2.90;2.70;;;15.20;58.90;;;;;;5052958;28;20029;-23
2023/01/23 05:39:59;;;;;;;2.67;2.58;;;15.20;59.00;;;;;;5057045;28;20041;-19
2023/01/23 05:42:24;;;;;;;2.70;2.60;;;15.20;59.10;;;;;;5066689;28;20117;-15
2023/01/23 05:44:50;;;;;;;2.50;2.30;;;15.10;59.00;;;;;;5044921;28;20048;-24
2023/01/23 05:47:16;;;;;;;2.60;2.50;;;15.20;59.10;;;;;;5062995;28;20039;-17
2023/01/23 05:49:41;;;;;;;2.58;2.40;;;15.20;58.90;;;;;;5061089;28;20036;-8
2023/01/23 05:52:07;;;;;;;2.55;2.45;;;15.10;59.10;;;;;;5047751;28;20043;-10
2023/01/23 05:54:32;;;;;;;2.58;2.47;;;15.20;58.70;;;;;;5040756;28;20041;-16
2023/01/23 05:56:58;;;;;;;2.25;2.15;;;15.20;59.10;;;;;;5042772;28;20486;-7
2023/01/23 05:59:23;;;;;;;2.70;2.50;;;15.10;59.00;;;;;;5040127;28;20037;-21
2023/01/23 06:01:49;;;;;;;2.20;2.10;;;15.20;59.00;;;;;;5039419;28;20056;-10
2023/01/23 06:04:15;;;;;;;2.15;2.05;;;15.10;58.80;;;;;;5044384;28;20036;-14
2023/01/23 06:06:44;;;;;;;2.20;2.10;;;15.20;58.90;;;;;;5046343;28;20033;-21
2023/01/23 06:09:10;;;;;;;2.38;2.28;;;15.10;59.10;;;;;;5059016;28;20048;-11
2023/01/23 06:11:35;;;;;;;2.50;2.40;;;15.10;59.00;;;;;;5054498;28;20064;-16
2023/01/23 06:14:01;;;;;;;2.50;2.40;;;15.20;59.80;;;;;;5054743;28;20116;-28
2023/01/23 06:16:27;;;;;;;2.80;2.65;;;15.10;59.50;;;;;;5045008;28;20033;-14
2023/01/23 06:18:52;;;;;;;2.00;1.90;;;15.10;59.10;;;;;;5051014;28;20044;-13
2023/01/23 06:21:18;;;;;;;2.33;2.22;;;15.00;59.20;;;;;;5044928;28;20041;-27
2023/01/23 06:23:44;;;;;;;2.58;2.47;;;15.20;59.80;;;;;;5052861;28;20063;-22
2023/01/23 06:26:10;;;;;;;3.05;2.55;;;15.10;59.70;;;;;;5048513;28;20495;-20
2023/01/23 06:28:36;;;;;;;2.40;2.30;;;15.10;59.50;;;;;;5054066;28;20097;-29
2023/01/23 06:31:02;;;;;;;2.97;2.78;;;15.10;59.40;;;;;;5044285;28;20048;-10
2023/01/23 06:33:28;;;;;;;2.47;2.38;;;15.10;59.40;;;;;;5044612;28;20041;-22
2023/01/23 06:36:01;;;;;;;2.67;2.58;;;15.20;59.40;;;;;;5039942;28;20041;-24
2023/01/23 06:38:27;;;;;;;2.97;2.80;;;15.10;59.60;;;;;;5045883;28;20056;-8
2023/01/23 06:40:52;;;;;;;2.40;2.30;;;15.10;60.50;;;;;;5042273;28;20038;-21
2023/01/23 06:43:18;;;;;;;2.40;2.20;;;15.10;60.50;;;;;;5042513;28;20044;-26
2023/01/23 06:45:45;;;;;;;3.67;2.50;;;15.20;61.00;;;;;;5048279;28;20037;-8
2023/01/23 06:48:10;;;;;;;2.33;2.22;;;15.30;60.60;;;;;;5052420;28;20080;-18
2023/01/23 06:50:37;;;;;;;2.08;1.98;;;15.30;59.70;;;;;;5054412;28;20092;-14
2023/01/23 06:53:04;;;;;;;2.42;2.15;;;15.20;60.00;;;;;;5049537;28;20040;-12
2023/01/23 06:55:30;;;;;;;2.83;2.55;;;15.20;60.30;;;;;;5052961;28;20070;-23
2023/01/23 06:57:55;;;;;;;2.45;2.28;;;15.20;60.80;;;;;;5041998;28;20334;-10
2023/01/23 07:00:21;;;;;;;2.65;2.45;;;15.20;60.60;;;;;;5041541;28;20029;-21
2023/01/23 07:02:47;;;;;;;2.40;2.30;;;15.20;60.50;;;;;;5039484;28;20053;-15
2023/01/23 07:05:12;;;;;;;2.67;2.47;;;15.30;60.10;;;;;;5038876;28;20130;-9
2023/01/23 07:07:38;;;;;;;2.97;2.20;;;15.30;60.10;;;;;;5038119;28;20484;-10
2023/01/23 07:10:04;;;;;;;2.55;2.38;;;15.30;59.90;;;;;;5037975;28;20065;-9
2023/01/23 07:12:30;;;;;;;3.97;3.00;;;15.50;59.60;;;;;;5045836;28;20040;-9
2023/01/23 07:14:55;;;;;;;3.03;2.83;;;15.70;59.10;;;;;;5040209;28;20427;-9
2023/01/23 07:17:21;;;;;;;2.90;2.70;;;15.50;59.20;;;;;;5042463;28;20071;-22
2023/01/23 07:19:46;;;;;;;3.40;3.17;;;15.40;59.40;;;;;;5046382;28;20054;-13
2023/01/23 07:22:16;;;;;;;3.15;2.95;;;15.30;60.00;;;;;;5040329;28;20033;-8
2023/01/23 07:24:41;;;;;;;2.90;2.70;;;15.30;60.60;;;;;;5044615;28;20049;-18
2023/01/23 07:27:07;;;;;;;3.17;2.83;;;15.40;60.50;;;;;;5045832;28;20041;-13
2023/01/23 07:29:33;;;;;;;3.15;2.83;;;15.40;60.30;;;;;;5043025;28;20040;-37
2023/01/23 07:31:59;;;;;;;2.92;2.72;;;15.30;60.90;;;;;;5043311;28;20033;-24
2023/01/23 07:34:25;;;;;;;3.95;3.17;;;15.20;61.20;;;;;;5047337;28;20049;-43
2023/01/23 07:36:51;;;;;;;3.10;2.90;;;15.20;61.30;;;;;;5041191;28;20065;-22
2023/01/23 07:39:17;;;;;;;3.17;2.95;;;15.30;61.30;;;;;;5047298;28;20076;-13
2023/01/23 07:41:42;;;;;;;4.93;3.00;;;15.30;61.40;;;;;;5038404;28;20051;-8
2023/01/23 07:44:10;;;;;;;4.15;3.05;;;15.40;61.30;;;;;;5028538;28;20500;-14
2023/01/23 07:46:36;;;;;;;2.80;2.60;;;15.30;61.40;;;;;;5041409;28;20476;-16
2023/01/23 07:49:01;;;;;;;3.92;2.80;;;15.30;61.60;;;;;;5041836;28;20519;-23
2023/01/23 07:51:27;;;;;;;2.80;2.60;;;15.50;61.30;;;;;;5038827;28;20049;-25
2023/01/23 07:53:53;;;;;;;2.65;2.45;;;15.40;61.70;;;;;;5043726;28;21001;-34
2023/01/23 07:56:18;;;;;;;2.65;2.45;;;15.30;62.30;;;;;;5042441;28;20081;-17
2023/01/23 07:58:47;;;;;;;4.85;2.95;;;15.30;62.50;;;;;;5045593;28;20041;-23
2023/01/23 08:01:13;;;;;;;2.40;2.30;;;15.40;62.50;;;;;;5048582;28;20072;-15
2023/01/23 08:03:38;;;;;;;2.80;2.60;;;15.50;62.10;;;;;;5044749;28;20061;-26
2023/01/23 08:06:04;;;;;;;6.28;2.65;;;15.40;62.60;;;;;;5041351;28;20397;-24
2023/01/23 08:08:30;;;;;;;2.50;2.40;;;15.40;62.60;;;;;;5065748;28;20428;-34
2023/01/23 08:10:55;;;;;;;2.40;2.30;;;15.40;62.70;;;;;;5039375;28;20045;-33
2023/01/23 08:13:21;;;;;;;2.78;2.58;;;15.40;62.70;;;;;;5043626;28;20048;-17
2023/01/23 08:15:47;;;;;;;2.78;2.67;;;15.50;62.60;;;;;;5044475;28;20049;-20
2023/01/23 08:18:12;;;;;;;3.15;2.53;;;15.60;62.70;;;;;;5046474;28;20037;-17
2023/01/23 08:20:38;;;;;;;2.80;2.60;;;15.60;63.00;;;;;;5046769;28;20197;-17
2023/01/23 08:23:03;;;;;;;2.63;2.22;;;15.80;62.10;;;;;;5062851;28;20040;-23
2023/01/23 08:25:29;;;;;;;2.70;2.47;;;15.70;62.60;;;;;;5060249;28;20094;-11
2023/01/23 08:27:55;;;;;;;2.45;2.25;;;15.70;62.60;;;;;;5056437;28;20040;-12
2023/01/23 08:30:20;;;;;;;2.75;2.55;;;15.70;62.80;;;;;;5050101;28;20132;-15
2023/01/23 08:32:46;;;;;;;3.15;2.22;;;15.70;62.80;;;;;;5049158;28;20107;-14
2023/01/23 08:35:11;;;;;;;5.85;2.45;;;15.70;62.90;;;;;;5065140;28;20052;-16
2023/01/23 08:37:37;;;;;;;3.00;2.75;;;15.70;62.80;;;;;;5059351;28;20059;-19
2023/01/23 08:40:03;;;;;;;2.53;2.42;;;15.70;62.90;;;;;;5063603;28;20060;-21
2023/01/23 08:42:29;;;;;;;2.75;2.60;;;15.80;62.70;;;;;;5047113;28;20056;-17
2023/01/23 08:44:55;;;;;;;2.95;2.33;;;15.60;63.00;;;;;;5056525;28;20418;-11
2023/01/23 08:47:20;;;;;;;2.58;2.47;;;15.70;62.90;;;;;;5051022;28;20427;-34
2023/01/23 08:49:46;;;;;;;2.65;2.47;;;15.70;63.10;;;;;;5046748;28;20101;-17
2023/01/23 08:52:12;;;;;;;3.47;2.90;;;15.70;63.00;;;;;;5039832;28;20044;-22
2023/01/23 08:54:37;;;;;;;3.00;2.80;;;15.60;63.10;;;;;;5047141;28;20208;-33
2023/01/23 08:57:03;;;;;;;3.80;2.97;;;15.60;63.00;;;;;;5047202;28;20055;-41
2023/01/23 08:59:29;;;;;;;3.33;3.10;;;15.60;63.00;;;;;;5047629;28;20032;-27
2023/01/23 09:01:55;;;;;;;4.70;3.40;;;15.60;63.40;;;;;;5046903;28;20060;-33
2023/01/23 09:04:20;;;;;;;3.78;3.47;;;15.80;63.50;;;;;;5047802;28;20065;-15
2023/01/23 09:06:46;;;;;;;3.70;3.30;;;15.70;63.40;;;;;;5046693;28;20040;-13
2023/01/23 09:09:11;;;;;;;3.38;3.10;;;15.70;63.40;;;;;;5047036;28;20052;-17
2023/01/23 09:11:37;;;;;;;3.17;2.97;;;15.80;63.60;;;;;;5047259;28;20123;-21
2023/01/23 09:14:02;;;;;;;3.10;2.90;;;15.80;63.20;;;;;;5046671;28;20048;-13
2023/01/23 09:16:28;;;;;;;3.30;3.10;;;15.80;63.30;;;;;;5047073;28;20103;-17
2023/01/23 09:18:54;;;;;;;3.53;3.25;;;15.80;63.20;;;;;;5045903;28;20021;-13
2023/01/23 09:21:20;;;;;;;3.30;3.20;;;15.90;63.00;;;;;;5047545;28;20041;-15
2023/01/23 09:23:45;;;;;;;3.25;3.05;;;15.80;63.30;;;;;;5046398;28;20064;-19
2023/01/23 09:26:12;;;;;;;3.30;3.10;;;15.90;63.10;;;;;;5046526;28;20083;-23
2023/01/23 09:28:40;;;;;;;4.00;3.10;;;15.90;63.30;;;;;;5046080;28;20048;-20
2023/01/23 09:31:07;;;;;;;3.30;3.08;;;15.90;63.30;;;;;;5045985;28;20089;-14
2023/01/23 09:33:33;;;;;;;2.90;2.72;;;16.00;63.30;;;;;;5061133;28;20032;-19
2023/01/23 09:35:59;;;;;;;3.03;2.83;;;16.00;63.30;;;;;;5056250;28;20036;-22
2023/01/23 09:38:25;;;;;;;3.50;3.30;;;16.00;63.20;;;;;;5059692;28;20044;-18
2023/01/23 09:40:53;;;;;;;2.92;2.72;;;16.00;62.90;;;;;;5054368;28;20514;-12
2023/01/23 09:43:30;;;;;;;2.90;2.70;;;16.00;63.30;;;;;;5060087;28;20041;-14
2023/01/23 09:45:58;;;;;;;3.58;2.85;;;16.00;63.30;;;;;;5043690;28;20087;-16
2023/01/23 09:48:44;;;;;;;3.67;3.38;;;16.00;63.30;;;;;;5039151;28;20031;-13
2023/01/23 09:51:16;;;;;;;3.45;3.25;;;16.00;63.50;;;;;;5049799;28;20080;-24
2023/01/23 09:53:41;;;;;;;3.08;2.88;;;16.00;63.10;;;;;;5055861;28;20044;-30
2023/01/23 09:56:39;;;;;;;3.42;3.22;;;16.00;63.40;;;;;;5063232;28;20048;-29
2023/01/23 09:59:32;;;;;;;3.53;3.33;;;16.00;62.90;;;;;;5041710;28;20047;-23
2023/01/23 10:01:57;;;;;;;3.15;2.95;;;16.10;62.90;;;;;;5043252;28;20036;-23
2023/01/23 10:04:23;;;;;;;4.32;3.58;;;16.10;63.10;;;;;;5044895;28;20503;-17
2023/01/23 10:06:53;;;;;;;4.82;3.25;;;16.10;62.90;;;;;;5043791;28;20555;-34
2023/01/23 10:09:50;;;;;;;3.50;3.20;;;16.10;63.20;;;;;;5057637;28;20126;-36
2023/01/23 10:13:01;;;;;;;2.58;2.47;;;16.10;62.90;;;;;;5044270;28;20850;-38
2023/01/23 10:15:45;;;;;;;3.50;3.20;;;16.10;62.60;;;;;;5033632;28;20059;-21
2023/01/23 10:18:32;;;;;;;3.05;2.85;;;16.10;62.70;;;;;;5038449;28;20067;-23
2023/01/23 10:21:32;;;;;;;3.60;3.30;;;16.10;63.40;;;;;;5035941;28;20170;-31
2023/01/23 10:24:16;;;;;;;3.88;3.65;;;16.00;63.40;;;;;;5032243;28;21068;-20
2023/01/23 10:26:42;;;;;;;;;;;16.00;64.70;;;;;;5038072;28;20052;-18
2023/01/23 10:29:38;;;;;;;3.63;3.33;;;16.00;64.00;;;;;;5029987;28;19985;-30
2023/01/23 10:32:15;;;;;;;6.78;3.63;;;16.00;64.30;;;;;;5030586;28;20135;-16
2023/01/23 10:34:47;;;;;;;4.00;3.50;;;16.00;64.00;;;;;;5030087;28;20064;-22
2023/01/23 10:37:18;;;;;;;3.22;3.03;;;16.10;63.80;;;;;;5065729;28;20048;-13
2023/01/23 10:40:11;;;;;;;3.30;3.10;;;16.10;64.00;;;;;;5034075;28;20471;-13
2023/01/23 10:42:37;;;;;;;3.63;3.33;;;16.10;64.00;;;;;;5025702;28;20152;-24
2023/01/23 10:45:03;;;;;;;3.28;3.08;;;16.20;63.60;;;;;;5035219;28;20056;-18
2023/01/23 10:47:41;;;;;;;2.65;2.55;;;16.10;63.40;;;;;;5041767;28;20052;-13
2023/01/23 10:50:07;;;;;;;3.45;3.15;;;16.20;63.40;;;;;;5038644;28;20546;-15
2023/01/23 10:52:36;;;;;;;3.65;3.45;;;16.20;63.10;;;;;;5045638;28;20045;-21
2023/01/23 10:55:23;;;;;;;3.00;2.80;;;16.20;63.10;;;;;;5046008;28;20052;-23
2023/01/23 10:57:51;;;;;;;4.70;2.70;;;16.30;63.00;;;;;;5064560;28;20048;-19
2023/01/23 11:00:32;;;;;;;2.80;2.60;;;16.30;63.00;;;;;;5061868;28;20048;-21
2023/01/23 11:03:19;;;;;;;3.10;2.90;;;16.30;62.70;;;;;;5047700;28;20071;-18
2023/01/23 11:05:53;;;;;;;2.78;2.58;;;16.30;62.90;;;;;;5068765;28;20415;-12
2023/01/23 11:08:33;;;;;;;2.83;2.63;;;16.40;62.90;;;;;;5052197;28;20132;-19
2023/01/23 11:11:14;;;;;;;2.42;2.33;;;16.30;62.80;;;;;;5051489;28;20538;-22
2023/01/23 11:13:39;;;;;;;2.83;2.63;;;16.40;62.70;;;;;;5061111;28;20040;-17
2023/01/23 11:16:05;;;;;;;3.40;3.10;;;16.40;62.50;;;;;;5068075;28;20044;-16
2023/01/23 11:18:37;;;;;;;3.65;2.90;;;16.40;62.70;;;;;;5067147;28;20045;-19
2023/01/23 11:21:03;;;;;;;3.60;3.30;;;16.40;62.70;;;;;;5069344;28;20064;-18
2023/01/23 11:23:29;;;;;;;3.72;3.42;;;16.30;62.80;;;;;;5054391;28;20407;-24
2023/01/23 11:25:54;;;;;;;3.58;3.28;;;16.40;62.80;;;;;;5044233;28;20045;-30
2023/01/23 11:28:25;;;;;;;3.60;3.40;;;16.40;63.00;;;;;;5045304;28;20037;-13
2023/01/23 11:30:54;;;;;;;3.75;3.55;;;16.40;63.00;;;;;;5051372;28;20052;-18
2023/01/23 11:33:32;;;;;;;3.38;3.17;;;16.40;62.90;;;;;;5054443;28;20186;-22
2023/01/23 11:35:57;;;;;;;3.40;3.20;;;16.50;62.60;;;;;;5047013;28;20045;-17
2023/01/23 11:38:27;;;;;;;3.03;2.72;;;16.50;62.50;;;;;;5046675;28;20097;-30
2023/01/23 11:40:52;;;;;;;3.33;3.05;;;16.60;62.20;;;;;;5039935;28;20413;-16
2023/01/23 11:43:18;;;;;;;2.78;2.60;;;16.60;62.30;;;;;;5031342;28;20045;-12
2023/01/23 11:46:02;;;;;;;2.65;2.42;;;16.60;62.20;;;;;;5046676;28;20045;-19
2023/01/23 11:48:39;;;;;;;3.97;3.67;;;16.70;62.10;;;;;;5048838;28;20045;-30
2023/01/23 11:51:11;;;;;;;3.35;2.55;;;16.60;62.00;;;;;;5048051;28;20045;-27
2023/01/23 11:54:17;;;;;;;2.85;2.65;;;16.60;62.00;;;;;;5046068;28;20574;-13
2023/01/23 11:57:02;;;;;;;2.92;2.47;;;16.60;62.00;;;;;;5035197;28;20041;-31
2023/01/23 12:00:09;;;;;;;2.70;2.50;;;16.60;62.10;;;;;;5022786;28;20512;-23
2023/01/23 12:02:40;;;;;;;3.13;2.92;;;16.60;62.10;;;;;;5044483;28;20045;-16
2023/01/23 12:05:20;;;;;;;2.83;2.63;;;16.60;62.20;;;;;;5057886;28;20033;-13
2023/01/23 12:08:07;;;;;;;2.70;2.30;;;16.60;62.10;;;;;;5067805;28;20056;-18
2023/01/23 12:11:00;;;;;;;2.80;2.60;;;16.60;62.10;;;;;;5053079;28;20054;-12
2023/01/23 12:13:52;;;;;;;2.50;2.28;;;16.60;62.20;;;;;;5045321;28;20041;-25
2023/01/23 12:16:30;;;;;;;2.50;2.30;;;16.60;62.10;;;;;;5053917;28;20069;-28
2023/01/23 12:19:12;;;;;;;2.70;2.50;;;16.60;62.20;;;;;;5077342;28;20045;-30
2023/01/23 12:22:15;;;;;;;2.50;2.40;;;16.60;62.40;;;;;;5061250;28;20055;-37
2023/01/23 12:24:52;;;;;;;2.38;2.28;;;16.60;62.40;;;;;;5054925;28;20136;-12
2023/01/23 12:27:33;;;;;;;2.80;2.60;;;16.60;62.30;;;;;;5047272;28;20036;-17
2023/01/23 12:29:58;;;;;;;2.83;2.50;;;16.60;62.20;;;;;;5059942;28;20048;-31
2023/01/23 12:32:59;;;;;;;4.03;2.45;;;16.60;62.40;;;;;;5053833;28;20110;-16
2023/01/23 12:35:49;;;;;;;2.20;2.10;;;16.70;62.20;;;;;;5042145;28;20056;-12
2023/01/23 12:38:29;;;;;;;1.92;1.83;;;16.60;62.10;;;;;;5051166;28;20747;-18
2023/01/23 12:41:12;;;;;;;3.65;2.47;;;16.60;62.20;;;;;;5052397;28;20106;-23
2023/01/23 12:43:52;;;;;;;2.33;2.13;;;16.60;62.20;;;;;;5049826;28;20101;-44
2023/01/23 12:46:40;;;;;;;2.58;2.38;;;16.60;62.10;;;;;;5043296;28;20086;-18
2023/01/23 12:49:23;;;;;;;2.28;2.05;;;16.60;62.00;;;;;;5048601;28;20539;-20
2023/01/23 12:51:54;;;;;;;3.72;1.88;;;16.60;61.90;;;;;;5046436;28;20128;-32
2023/01/23 12:54:28;;;;;;;2.30;2.10;;;16.60;61.80;;;;;;5059969;28;20052;-13
2023/01/23 12:56:53;;;;;;;2.30;2.10;;;16.60;62.60;;;;;;5057298;28;20048;-18
2023/01/23 12:59:22;;;;;;;1.88;1.77;;;16.70;61.70;;;;;;5057257;28;20034;-13
2023/01/23 13:02:04;;;;;;;2.28;2.13;;;16.60;62.10;;;;;;5054346;28;20136;-33
2023/01/23 13:04:46;;;;;;;2.30;2.20;;;16.70;62.10;;;;;;5044289;28;20044;-20